sensor_id;sensor_type;location;lat;lon;timestamp;P1;durP1;ratioP1;P2;durP2;ratioP2
4202;SDS011;2115;51.038;7.006;2023-06-14T00:01:17;7.83;;;5.47;;
4202;SDS011;2115;51.038;7.006;2023-06-14T00:03:45;10.13;;;5.70;;
4202;SDS011;2115;51.038;7.006;2023-06-14T00:06:12;10.60;;;5.70;;
4202;SDS011;2115;51.038;7.006;2023-06-14T00:08:38;9.13;;;5.60;;
4202;SDS011;2115;51.038;7.006;2023-06-14T00:11:04;8.00;;;5.50;;
4202;SDS011;2115;51.038;7.006;2023-06-14T00:13:30;8.93;;;5.10;;
4202;SDS011;2115;51.038;7.006;2023-06-14T00:15:55;9.10;;;4.90;;
4202;SDS011;2115;51.038;7.006;2023-06-14T00:18:21;8.80;;;5.30;;
4202;SDS011;2115;51.038;7.006;2023-06-14T00:20:49;11.43;;;6.47;;
4202;SDS011;2115;51.038;7.006;2023-06-14T00:23:15;12.43;;;6.37;;
4202;SDS011;2115;51.038;7.006;2023-06-14T00:25:40;7.97;;;5.53;;
4202;SDS011;2115;51.038;7.006;2023-06-14T00:28:05;8.97;;;5.50;;
4202;SDS011;2115;51.038;7.006;2023-06-14T00:30:31;6.93;;;4.93;;
4202;SDS011;2115;51.038;7.006;2023-06-14T00:32:56;9.57;;;5.17;;
4202;SDS011;2115;51.038;7.006;2023-06-14T00:35:22;9.43;;;5.90;;
4202;SDS011;2115;51.038;7.006;2023-06-14T00:37:48;8.93;;;5.60;;
4202;SDS011;2115;51.038;7.006;2023-06-14T00:40:13;8.23;;;5.43;;
4202;SDS011;2115;51.038;7.006;2023-06-14T00:42:39;9.63;;;5.20;;
4202;SDS011;2115;51.038;7.006;2023-06-14T00:45:04;10.50;;;6.37;;
4202;SDS011;2115;51.038;7.006;2023-06-14T00:47:30;8.33;;;5.80;;
4202;SDS011;2115;51.038;7.006;2023-06-14T00:49:55;9.23;;;6.03;;
4202;SDS011;2115;51.038;7.006;2023-06-14T00:52:21;11.07;;;6.10;;
4202;SDS011;2115;51.038;7.006;2023-06-14T00:54:49;10.63;;;5.97;;
4202;SDS011;2115;51.038;7.006;2023-06-14T00:57:14;12.33;;;5.90;;
4202;SDS011;2115;51.038;7.006;2023-06-14T00:59:44;10.33;;;5.57;;
4202;SDS011;2115;51.038;7.006;2023-06-14T01:02:10;10.87;;;7.33;;
4202;SDS011;2115;51.038;7.006;2023-06-14T01:04:36;8.97;;;6.33;;
4202;SDS011;2115;51.038;7.006;2023-06-14T01:07:10;7.20;;;5.57;;
4202;SDS011;2115;51.038;7.006;2023-06-14T01:15:06;14.43;;;5.83;;
4202;SDS011;2115;51.038;7.006;2023-06-14T01:17:32;8.50;;;4.80;;
4202;SDS011;2115;51.038;7.006;2023-06-14T01:19:58;7.90;;;5.83;;
4202;SDS011;2115;51.038;7.006;2023-06-14T01:22:26;7.90;;;5.73;;
4202;SDS011;2115;51.038;7.006;2023-06-14T01:24:52;9.47;;;5.47;;
4202;SDS011;2115;51.038;7.006;2023-06-14T01:27:21;9.93;;;5.77;;
4202;SDS011;2115;51.038;7.006;2023-06-14T01:29:49;15.23;;;6.53;;
4202;SDS011;2115;51.038;7.006;2023-06-14T01:32:16;6.30;;;4.73;;
4202;SDS011;2115;51.038;7.006;2023-06-14T01:34:43;7.57;;;5.00;;
4202;SDS011;2115;51.038;7.006;2023-06-14T01:37:08;8.60;;;5.60;;
4202;SDS011;2115;51.038;7.006;2023-06-14T01:39:34;8.20;;;5.73;;
4202;SDS011;2115;51.038;7.006;2023-06-14T01:42:00;6.93;;;5.47;;
4202;SDS011;2115;51.038;7.006;2023-06-14T01:44:25;13.00;;;5.93;;
4202;SDS011;2115;51.038;7.006;2023-06-14T01:46:52;16.97;;;5.50;;
4202;SDS011;2115;51.038;7.006;2023-06-14T01:49:17;8.30;;;5.27;;
4202;SDS011;2115;51.038;7.006;2023-06-14T01:51:43;7.37;;;5.13;;
4202;SDS011;2115;51.038;7.006;2023-06-14T01:54:08;6.63;;;5.07;;
4202;SDS011;2115;51.038;7.006;2023-06-14T01:56:34;9.83;;;5.17;;
4202;SDS011;2115;51.038;7.006;2023-06-14T01:58:59;9.27;;;4.93;;
4202;SDS011;2115;51.038;7.006;2023-06-14T02:01:24;6.50;;;5.00;;
4202;SDS011;2115;51.038;7.006;2023-06-14T02:03:51;6.97;;;4.80;;
4202;SDS011;2115;51.038;7.006;2023-06-14T02:06:18;9.10;;;5.30;;
4202;SDS011;2115;51.038;7.006;2023-06-14T02:08:44;9.20;;;4.90;;
4202;SDS011;2115;51.038;7.006;2023-06-14T02:11:09;10.13;;;5.20;;
4202;SDS011;2115;51.038;7.006;2023-06-14T02:13:35;8.80;;;5.07;;
4202;SDS011;2115;51.038;7.006;2023-06-14T02:16:00;7.73;;;5.40;;
4202;SDS011;2115;51.038;7.006;2023-06-14T02:18:26;6.83;;;4.63;;
4202;SDS011;2115;51.038;7.006;2023-06-14T02:20:52;9.30;;;5.30;;
4202;SDS011;2115;51.038;7.006;2023-06-14T02:23:17;7.13;;;5.20;;
4202;SDS011;2115;51.038;7.006;2023-06-14T02:25:43;8.07;;;4.77;;
4202;SDS011;2115;51.038;7.006;2023-06-14T02:28:10;6.07;;;4.50;;
4202;SDS011;2115;51.038;7.006;2023-06-14T02:30:35;8.67;;;5.20;;
4202;SDS011;2115;51.038;7.006;2023-06-14T02:33:01;7.90;;;5.10;;
4202;SDS011;2115;51.038;7.006;2023-06-14T02:35:27;9.27;;;5.23;;
4202;SDS011;2115;51.038;7.006;2023-06-14T02:37:52;9.93;;;5.93;;
4202;SDS011;2115;51.038;7.006;2023-06-14T02:40:18;5.50;;;4.30;;
4202;SDS011;2115;51.038;7.006;2023-06-14T02:42:45;9.70;;;5.67;;
4202;SDS011;2115;51.038;7.006;2023-06-14T02:45:10;9.17;;;6.40;;
4202;SDS011;2115;51.038;7.006;2023-06-14T02:47:36;8.10;;;5.90;;
4202;SDS011;2115;51.038;7.006;2023-06-14T02:50:01;9.53;;;5.70;;
4202;SDS011;2115;51.038;7.006;2023-06-14T02:52:27;8.43;;;5.80;;
4202;SDS011;2115;51.038;7.006;2023-06-14T02:54:53;8.53;;;5.67;;
4202;SDS011;2115;51.038;7.006;2023-06-14T02:57:19;7.50;;;5.47;;
4202;SDS011;2115;51.038;7.006;2023-06-14T02:59:45;10.90;;;5.00;;
4202;SDS011;2115;51.038;7.006;2023-06-14T03:02:10;8.60;;;5.80;;
4202;SDS011;2115;51.038;7.006;2023-06-14T03:04:36;9.80;;;5.77;;
4202;SDS011;2115;51.038;7.006;2023-06-14T03:07:04;9.33;;;5.60;;
4202;SDS011;2115;51.038;7.006;2023-06-14T03:09:34;6.93;;;5.40;;
4202;SDS011;2115;51.038;7.006;2023-06-14T03:12:02;10.20;;;5.57;;
4202;SDS011;2115;51.038;7.006;2023-06-14T03:14:28;10.03;;;5.73;;
4202;SDS011;2115;51.038;7.006;2023-06-14T03:16:55;8.27;;;5.50;;
4202;SDS011;2115;51.038;7.006;2023-06-14T03:19:21;9.70;;;5.70;;
4202;SDS011;2115;51.038;7.006;2023-06-14T03:21:47;7.93;;;5.03;;
4202;SDS011;2115;51.038;7.006;2023-06-14T03:24:13;7.77;;;4.90;;
4202;SDS011;2115;51.038;7.006;2023-06-14T03:26:38;8.40;;;5.50;;
4202;SDS011;2115;51.038;7.006;2023-06-14T03:29:03;9.43;;;4.93;;
4202;SDS011;2115;51.038;7.006;2023-06-14T03:31:29;6.80;;;4.70;;
4202;SDS011;2115;51.038;7.006;2023-06-14T03:33:57;9.83;;;5.00;;
4202;SDS011;2115;51.038;7.006;2023-06-14T03:36:23;7.17;;;5.30;;
4202;SDS011;2115;51.038;7.006;2023-06-14T03:38:48;8.90;;;5.17;;
4202;SDS011;2115;51.038;7.006;2023-06-14T03:41:14;14.10;;;6.27;;
4202;SDS011;2115;51.038;7.006;2023-06-14T03:43:39;7.27;;;5.10;;
4202;SDS011;2115;51.038;7.006;2023-06-14T03:46:05;11.77;;;5.67;;
4202;SDS011;2115;51.038;7.006;2023-06-14T03:48:30;13.40;;;6.00;;
4202;SDS011;2115;51.038;7.006;2023-06-14T03:50:55;9.70;;;5.43;;
4202;SDS011;2115;51.038;7.006;2023-06-14T03:53:21;9.67;;;5.50;;
4202;SDS011;2115;51.038;7.006;2023-06-14T03:55:48;12.50;;;4.87;;
4202;SDS011;2115;51.038;7.006;2023-06-14T03:58:15;10.93;;;5.50;;
4202;SDS011;2115;51.038;7.006;2023-06-14T04:00:41;8.60;;;4.87;;
4202;SDS011;2115;51.038;7.006;2023-06-14T04:03:06;8.40;;;5.00;;
4202;SDS011;2115;51.038;7.006;2023-06-14T04:05:32;13.13;;;4.87;;
4202;SDS011;2115;51.038;7.006;2023-06-14T04:07:57;11.50;;;5.30;;
4202;SDS011;2115;51.038;7.006;2023-06-14T04:10:23;11.47;;;5.13;;
4202;SDS011;2115;51.038;7.006;2023-06-14T04:12:49;13.80;;;5.70;;
4202;SDS011;2115;51.038;7.006;2023-06-14T04:15:15;8.20;;;5.10;;
4202;SDS011;2115;51.038;7.006;2023-06-14T04:17:41;9.70;;;4.70;;
4202;SDS011;2115;51.038;7.006;2023-06-14T04:20:06;10.83;;;5.20;;
4202;SDS011;2115;51.038;7.006;2023-06-14T04:22:34;12.40;;;5.30;;
4202;SDS011;2115;51.038;7.006;2023-06-14T04:25:01;10.63;;;4.60;;
4202;SDS011;2115;51.038;7.006;2023-06-14T04:27:27;8.93;;;6.33;;
4202;SDS011;2115;51.038;7.006;2023-06-14T04:29:53;8.77;;;5.57;;
4202;SDS011;2115;51.038;7.006;2023-06-14T04:32:27;13.00;;;4.80;;
4202;SDS011;2115;51.038;7.006;2023-06-14T04:34:54;10.23;;;5.03;;
4202;SDS011;2115;51.038;7.006;2023-06-14T04:37:23;11.13;;;5.33;;
4202;SDS011;2115;51.038;7.006;2023-06-14T04:39:49;9.43;;;4.40;;
4202;SDS011;2115;51.038;7.006;2023-06-14T04:42:15;10.27;;;4.40;;
4202;SDS011;2115;51.038;7.006;2023-06-14T04:44:41;8.23;;;4.43;;
4202;SDS011;2115;51.038;7.006;2023-06-14T04:47:08;7.53;;;4.50;;
4202;SDS011;2115;51.038;7.006;2023-06-14T04:49:37;7.60;;;4.50;;
4202;SDS011;2115;51.038;7.006;2023-06-14T04:52:06;15.10;;;5.10;;
4202;SDS011;2115;51.038;7.006;2023-06-14T04:54:32;23.20;;;5.00;;
4202;SDS011;2115;51.038;7.006;2023-06-14T04:56:58;7.60;;;4.27;;
4202;SDS011;2115;51.038;7.006;2023-06-14T04:59:24;9.30;;;4.50;;
4202;SDS011;2115;51.038;7.006;2023-06-14T05:01:50;8.80;;;4.20;;
4202;SDS011;2115;51.038;7.006;2023-06-14T05:04:17;15.60;;;6.00;;
4202;SDS011;2115;51.038;7.006;2023-06-14T05:06:43;12.93;;;5.20;;
4202;SDS011;2115;51.038;7.006;2023-06-14T05:09:13;7.20;;;4.63;;
4202;SDS011;2115;51.038;7.006;2023-06-14T05:11:39;9.37;;;5.33;;
4202;SDS011;2115;51.038;7.006;2023-06-14T05:14:07;12.03;;;4.10;;
4202;SDS011;2115;51.038;7.006;2023-06-14T05:16:32;10.13;;;4.50;;
4202;SDS011;2115;51.038;7.006;2023-06-14T05:18:58;7.40;;;4.07;;
4202;SDS011;2115;51.038;7.006;2023-06-14T05:21:23;6.23;;;4.30;;
4202;SDS011;2115;51.038;7.006;2023-06-14T05:23:49;12.33;;;5.10;;
4202;SDS011;2115;51.038;7.006;2023-06-14T05:26:15;7.90;;;4.20;;
4202;SDS011;2115;51.038;7.006;2023-06-14T05:28:41;10.50;;;4.40;;
4202;SDS011;2115;51.038;7.006;2023-06-14T05:31:06;7.70;;;4.07;;
4202;SDS011;2115;51.038;7.006;2023-06-14T05:33:32;5.30;;;3.83;;
4202;SDS011;2115;51.038;7.006;2023-06-14T05:35:57;12.50;;;4.60;;
4202;SDS011;2115;51.038;7.006;2023-06-14T05:38:23;5.07;;;3.33;;
4202;SDS011;2115;51.038;7.006;2023-06-14T05:40:48;8.40;;;4.20;;
4202;SDS011;2115;51.038;7.006;2023-06-14T05:43:13;7.70;;;4.10;;
4202;SDS011;2115;51.038;7.006;2023-06-14T05:45:39;6.43;;;4.00;;
4202;SDS011;2115;51.038;7.006;2023-06-14T05:48:05;7.83;;;4.00;;
4202;SDS011;2115;51.038;7.006;2023-06-14T05:50:30;17.57;;;4.33;;
4202;SDS011;2115;51.038;7.006;2023-06-14T05:52:56;11.30;;;4.30;;
4202;SDS011;2115;51.038;7.006;2023-06-14T05:55:21;10.63;;;3.90;;
4202;SDS011;2115;51.038;7.006;2023-06-14T05:57:47;7.07;;;4.07;;
4202;SDS011;2115;51.038;7.006;2023-06-14T06:00:13;11.13;;;3.47;;
4202;SDS011;2115;51.038;7.006;2023-06-14T06:02:40;8.03;;;4.20;;
4202;SDS011;2115;51.038;7.006;2023-06-14T06:05:12;5.03;;;2.97;;
4202;SDS011;2115;51.038;7.006;2023-06-14T06:07:38;11.80;;;4.70;;
4202;SDS011;2115;51.038;7.006;2023-06-14T06:10:09;15.87;;;3.87;;
4202;SDS011;2115;51.038;7.006;2023-06-14T06:12:35;6.40;;;3.47;;
4202;SDS011;2115;51.038;7.006;2023-06-14T06:15:00;5.53;;;3.80;;
4202;SDS011;2115;51.038;7.006;2023-06-14T06:17:26;10.60;;;3.97;;
4202;SDS011;2115;51.038;7.006;2023-06-14T06:19:51;5.57;;;4.10;;
4202;SDS011;2115;51.038;7.006;2023-06-14T06:22:17;8.53;;;4.03;;
4202;SDS011;2115;51.038;7.006;2023-06-14T06:24:42;5.17;;;3.57;;
4202;SDS011;2115;51.038;7.006;2023-06-14T06:27:08;6.90;;;3.20;;
4202;SDS011;2115;51.038;7.006;2023-06-14T06:29:34;11.23;;;4.20;;
4202;SDS011;2115;51.038;7.006;2023-06-14T06:32:00;8.03;;;3.67;;
4202;SDS011;2115;51.038;7.006;2023-06-14T06:34:25;9.03;;;3.73;;
4202;SDS011;2115;51.038;7.006;2023-06-14T06:36:50;4.40;;;3.23;;
4202;SDS011;2115;51.038;7.006;2023-06-14T06:39:16;17.13;;;3.50;;
4202;SDS011;2115;51.038;7.006;2023-06-14T06:41:41;6.60;;;3.23;;
4202;SDS011;2115;51.038;7.006;2023-06-14T06:44:07;10.10;;;3.10;;
4202;SDS011;2115;51.038;7.006;2023-06-14T06:46:32;11.30;;;3.63;;
4202;SDS011;2115;51.038;7.006;2023-06-14T06:48:58;11.40;;;3.40;;
4202;SDS011;2115;51.038;7.006;2023-06-14T06:51:24;5.90;;;3.50;;
4202;SDS011;2115;51.038;7.006;2023-06-14T06:53:53;10.20;;;3.67;;
4202;SDS011;2115;51.038;7.006;2023-06-14T06:56:21;8.47;;;3.37;;
4202;SDS011;2115;51.038;7.006;2023-06-14T06:58:50;6.30;;;3.37;;
4202;SDS011;2115;51.038;7.006;2023-06-14T07:01:16;8.33;;;3.20;;
4202;SDS011;2115;51.038;7.006;2023-06-14T07:03:42;5.47;;;3.00;;
4202;SDS011;2115;51.038;7.006;2023-06-14T07:06:07;16.30;;;3.10;;
4202;SDS011;2115;51.038;7.006;2023-06-14T07:08:33;4.77;;;2.87;;
4202;SDS011;2115;51.038;7.006;2023-06-14T07:10:59;4.27;;;2.60;;
4202;SDS011;2115;51.038;7.006;2023-06-14T07:13:24;6.03;;;3.17;;
4202;SDS011;2115;51.038;7.006;2023-06-14T07:15:50;6.70;;;2.90;;
4202;SDS011;2115;51.038;7.006;2023-06-14T07:18:18;4.97;;;2.93;;
4202;SDS011;2115;51.038;7.006;2023-06-14T07:20:43;5.03;;;2.63;;
4202;SDS011;2115;51.038;7.006;2023-06-14T07:23:09;6.27;;;2.57;;
4202;SDS011;2115;51.038;7.006;2023-06-14T07:25:34;3.63;;;2.43;;
4202;SDS011;2115;51.038;7.006;2023-06-14T07:28:00;5.67;;;2.30;;
4202;SDS011;2115;51.038;7.006;2023-06-14T07:30:25;3.60;;;2.40;;
4202;SDS011;2115;51.038;7.006;2023-06-14T07:32:52;3.80;;;1.67;;
4202;SDS011;2115;51.038;7.006;2023-06-14T07:35:18;8.37;;;2.13;;
4202;SDS011;2115;51.038;7.006;2023-06-14T07:37:43;2.70;;;1.80;;
4202;SDS011;2115;51.038;7.006;2023-06-14T07:40:10;5.90;;;2.40;;
4202;SDS011;2115;51.038;7.006;2023-06-14T07:42:36;3.50;;;1.87;;
4202;SDS011;2115;51.038;7.006;2023-06-14T07:45:02;7.20;;;1.83;;
4202;SDS011;2115;51.038;7.006;2023-06-14T07:47:28;3.53;;;2.30;;
4202;SDS011;2115;51.038;7.006;2023-06-14T07:49:54;8.60;;;2.20;;
4202;SDS011;2115;51.038;7.006;2023-06-14T07:52:19;5.07;;;2.53;;
4202;SDS011;2115;51.038;7.006;2023-06-14T07:54:45;9.77;;;2.17;;
4202;SDS011;2115;51.038;7.006;2023-06-14T07:57:10;8.73;;;2.10;;
4202;SDS011;2115;51.038;7.006;2023-06-14T07:59:36;6.03;;;2.20;;
4202;SDS011;2115;51.038;7.006;2023-06-14T08:02:01;7.10;;;1.90;;
4202;SDS011;2115;51.038;7.006;2023-06-14T08:04:27;5.77;;;1.83;;
4202;SDS011;2115;51.038;7.006;2023-06-14T08:06:52;4.20;;;1.80;;
4202;SDS011;2115;51.038;7.006;2023-06-14T08:09:18;12.63;;;2.00;;
4202;SDS011;2115;51.038;7.006;2023-06-14T08:11:44;8.33;;;2.47;;
4202;SDS011;2115;51.038;7.006;2023-06-14T08:14:09;9.03;;;2.30;;
4202;SDS011;2115;51.038;7.006;2023-06-14T08:16:35;5.57;;;1.63;;
4202;SDS011;2115;51.038;7.006;2023-06-14T08:19:01;3.50;;;2.03;;
4202;SDS011;2115;51.038;7.006;2023-06-14T08:21:26;3.23;;;2.07;;
4202;SDS011;2115;51.038;7.006;2023-06-14T08:23:54;7.20;;;1.83;;
4202;SDS011;2115;51.038;7.006;2023-06-14T08:26:22;5.77;;;2.30;;
4202;SDS011;2115;51.038;7.006;2023-06-14T08:28:48;4.83;;;2.27;;
4202;SDS011;2115;51.038;7.006;2023-06-14T08:31:13;4.63;;;2.27;;
4202;SDS011;2115;51.038;7.006;2023-06-14T08:33:39;4.60;;;2.10;;
4202;SDS011;2115;51.038;7.006;2023-06-14T08:36:08;4.73;;;2.43;;
4202;SDS011;2115;51.038;7.006;2023-06-14T08:38:33;4.20;;;2.17;;
4202;SDS011;2115;51.038;7.006;2023-06-14T08:40:59;7.77;;;2.43;;
4202;SDS011;2115;51.038;7.006;2023-06-14T08:43:26;4.10;;;2.30;;
4202;SDS011;2115;51.038;7.006;2023-06-14T08:45:58;7.33;;;2.30;;
4202;SDS011;2115;51.038;7.006;2023-06-14T08:48:25;4.13;;;2.40;;
4202;SDS011;2115;51.038;7.006;2023-06-14T08:50:51;3.50;;;1.90;;
4202;SDS011;2115;51.038;7.006;2023-06-14T08:53:27;8.50;;;2.03;;
4202;SDS011;2115;51.038;7.006;2023-06-14T08:55:54;4.00;;;1.97;;
4202;SDS011;2115;51.038;7.006;2023-06-14T08:58:21;3.77;;;1.90;;
4202;SDS011;2115;51.038;7.006;2023-06-14T09:00:49;5.23;;;2.17;;
4202;SDS011;2115;51.038;7.006;2023-06-14T09:03:15;3.80;;;1.97;;
4202;SDS011;2115;51.038;7.006;2023-06-14T09:05:42;3.13;;;2.17;;
4202;SDS011;2115;51.038;7.006;2023-06-14T09:08:08;11.40;;;2.43;;
4202;SDS011;2115;51.038;7.006;2023-06-14T09:10:35;3.27;;;2.00;;
4202;SDS011;2115;51.038;7.006;2023-06-14T09:13:02;3.20;;;1.80;;
4202;SDS011;2115;51.038;7.006;2023-06-14T09:15:32;5.40;;;1.80;;
4202;SDS011;2115;51.038;7.006;2023-06-14T09:17:58;5.30;;;1.80;;
4202;SDS011;2115;51.038;7.006;2023-06-14T09:20:26;3.50;;;2.10;;
4202;SDS011;2115;51.038;7.006;2023-06-14T09:22:51;2.83;;;2.00;;
4202;SDS011;2115;51.038;7.006;2023-06-14T09:25:18;4.07;;;2.10;;
4202;SDS011;2115;51.038;7.006;2023-06-14T09:27:45;6.60;;;2.33;;
4202;SDS011;2115;51.038;7.006;2023-06-14T09:30:10;6.30;;;2.10;;
4202;SDS011;2115;51.038;7.006;2023-06-14T09:32:39;4.50;;;2.30;;
4202;SDS011;2115;51.038;7.006;2023-06-14T09:35:08;2.80;;;2.00;;
4202;SDS011;2115;51.038;7.006;2023-06-14T09:37:34;4.23;;;2.03;;
4202;SDS011;2115;51.038;7.006;2023-06-14T09:40:00;3.90;;;2.20;;
4202;SDS011;2115;51.038;7.006;2023-06-14T09:42:26;3.97;;;2.13;;
4202;SDS011;2115;51.038;7.006;2023-06-14T09:44:53;7.53;;;2.27;;
4202;SDS011;2115;51.038;7.006;2023-06-14T09:47:20;5.53;;;2.27;;
4202;SDS011;2115;51.038;7.006;2023-06-14T09:49:46;9.30;;;2.77;;
4202;SDS011;2115;51.038;7.006;2023-06-14T09:52:19;3.53;;;1.90;;
4202;SDS011;2115;51.038;7.006;2023-06-14T09:54:46;2.67;;;1.67;;
4202;SDS011;2115;51.038;7.006;2023-06-14T09:57:13;7.20;;;2.80;;
4202;SDS011;2115;51.038;7.006;2023-06-14T09:59:46;3.43;;;1.77;;
4202;SDS011;2115;51.038;7.006;2023-06-14T10:02:34;2.20;;;1.70;;
4202;SDS011;2115;51.038;7.006;2023-06-14T10:05:06;4.63;;;1.83;;
4202;SDS011;2115;51.038;7.006;2023-06-14T10:08:19;3.47;;;2.30;;
4202;SDS011;2115;51.038;7.006;2023-06-14T10:10:26;3.20;;;2.00;;
4202;SDS011;2115;51.038;7.006;2023-06-14T10:12:52;2.77;;;1.90;;
4202;SDS011;2115;51.038;7.006;2023-06-14T10:15:24;5.43;;;1.97;;
4202;SDS011;2115;51.038;7.006;2023-06-14T10:17:58;7.53;;;2.37;;
4202;SDS011;2115;51.038;7.006;2023-06-14T10:20:46;6.60;;;2.57;;
4202;SDS011;2115;51.038;7.006;2023-06-14T10:23:21;7.90;;;2.90;;
4202;SDS011;2115;51.038;7.006;2023-06-14T10:25:54;5.07;;;2.30;;
4202;SDS011;2115;51.038;7.006;2023-06-14T10:33:32;5.80;;;1.90;;
4202;SDS011;2115;51.038;7.006;2023-06-14T10:38:34;7.75;;;3.10;;
4202;SDS011;2115;51.038;7.006;2023-06-14T10:41:02;3.45;;;2.40;;
4202;SDS011;2115;51.038;7.006;2023-06-14T10:43:28;8.88;;;2.40;;
4202;SDS011;2115;51.038;7.006;2023-06-14T10:46:13;6.03;;;2.45;;
4202;SDS011;2115;51.038;7.006;2023-06-14T10:48:44;16.27;;;2.10;;
4202;SDS011;2115;51.038;7.006;2023-06-14T10:51:16;8.77;;;2.15;;
4202;SDS011;2115;51.038;7.006;2023-06-14T10:53:51;5.95;;;2.10;;
4202;SDS011;2115;51.038;7.006;2023-06-14T10:56:22;5.50;;;2.30;;
4202;SDS011;2115;51.038;7.006;2023-06-14T10:58:51;9.60;;;2.00;;
4202;SDS011;2115;51.038;7.006;2023-06-14T11:01:19;13.48;;;2.13;;
4202;SDS011;2115;51.038;7.006;2023-06-14T11:03:54;5.97;;;2.22;;
4202;SDS011;2115;51.038;7.006;2023-06-14T11:06:21;4.90;;;2.08;;
4202;SDS011;2115;51.038;7.006;2023-06-14T11:11:36;6.60;;;2.30;;
4202;SDS011;2115;51.038;7.006;2023-06-14T11:14:03;3.42;;;1.63;;
4202;SDS011;2115;51.038;7.006;2023-06-14T11:16:29;4.13;;;1.95;;
4202;SDS011;2115;51.038;7.006;2023-06-14T11:18:57;5.28;;;2.35;;
4202;SDS011;2115;51.038;7.006;2023-06-14T11:21:23;3.60;;;2.10;;
4202;SDS011;2115;51.038;7.006;2023-06-14T11:23:53;4.32;;;2.17;;
4202;SDS011;2115;51.038;7.006;2023-06-14T11:26:30;3.17;;;1.80;;
4202;SDS011;2115;51.038;7.006;2023-06-14T11:28:56;5.88;;;2.03;;
4202;SDS011;2115;51.038;7.006;2023-06-14T11:31:23;4.18;;;1.48;;
4202;SDS011;2115;51.038;7.006;2023-06-14T11:33:53;4.47;;;1.77;;
4202;SDS011;2115;51.038;7.006;2023-06-14T11:36:20;4.88;;;1.60;;
4202;SDS011;2115;51.038;7.006;2023-06-14T11:38:45;3.42;;;1.63;;
4202;SDS011;2115;51.038;7.006;2023-06-14T11:41:10;4.15;;;1.58;;
4202;SDS011;2115;51.038;7.006;2023-06-14T11:43:36;2.58;;;1.80;;
4202;SDS011;2115;51.038;7.006;2023-06-14T11:46:02;2.83;;;1.77;;
4202;SDS011;2115;51.038;7.006;2023-06-14T11:48:37;4.57;;;1.70;;
4202;SDS011;2115;51.038;7.006;2023-06-14T11:51:03;6.00;;;1.70;;
4202;SDS011;2115;51.038;7.006;2023-06-14T11:53:29;1.90;;;1.30;;
4202;SDS011;2115;51.038;7.006;2023-06-14T11:55:55;4.25;;;1.55;;
4202;SDS011;2115;51.038;7.006;2023-06-14T11:58:21;8.23;;;1.70;;
4202;SDS011;2115;51.038;7.006;2023-06-14T12:00:48;3.22;;;1.50;;
4202;SDS011;2115;51.038;7.006;2023-06-14T12:03:15;3.25;;;1.90;;
4202;SDS011;2115;51.038;7.006;2023-06-14T12:05:41;2.88;;;1.40;;
4202;SDS011;2115;51.038;7.006;2023-06-14T12:08:06;1.90;;;1.45;;
4202;SDS011;2115;51.038;7.006;2023-06-14T12:10:41;6.20;;;1.45;;
4202;SDS011;2115;51.038;7.006;2023-06-14T12:13:08;6.22;;;1.67;;
4202;SDS011;2115;51.038;7.006;2023-06-14T12:15:34;4.28;;;1.08;;
4202;SDS011;2115;51.038;7.006;2023-06-14T12:18:00;2.90;;;1.58;;
4202;SDS011;2115;51.038;7.006;2023-06-14T12:20:29;4.53;;;1.50;;
4202;SDS011;2115;51.038;7.006;2023-06-14T12:22:56;3.03;;;2.05;;
4202;SDS011;2115;51.038;7.006;2023-06-14T12:25:27;2.17;;;1.40;;
4202;SDS011;2115;51.038;7.006;2023-06-14T12:28:04;6.15;;;1.60;;
4202;SDS011;2115;51.038;7.006;2023-06-14T12:30:30;4.70;;;1.10;;
4202;SDS011;2115;51.038;7.006;2023-06-14T12:32:55;2.35;;;1.20;;
4202;SDS011;2115;51.038;7.006;2023-06-14T12:35:21;2.72;;;1.30;;
4202;SDS011;2115;51.038;7.006;2023-06-14T12:37:46;4.07;;;1.30;;
4202;SDS011;2115;51.038;7.006;2023-06-14T12:40:12;5.22;;;1.10;;
4202;SDS011;2115;51.038;7.006;2023-06-14T12:42:38;2.58;;;1.27;;
4202;SDS011;2115;51.038;7.006;2023-06-14T12:45:04;4.03;;;1.77;;
4202;SDS011;2115;51.038;7.006;2023-06-14T12:47:30;4.80;;;1.67;;
4202;SDS011;2115;51.038;7.006;2023-06-14T12:49:55;2.10;;;1.10;;
4202;SDS011;2115;51.038;7.006;2023-06-14T12:52:21;2.95;;;1.40;;
4202;SDS011;2115;51.038;7.006;2023-06-14T12:54:47;2.33;;;1.38;;
4202;SDS011;2115;51.038;7.006;2023-06-14T12:57:12;2.42;;;1.27;;
4202;SDS011;2115;51.038;7.006;2023-06-14T12:59:38;3.40;;;1.30;;
4202;SDS011;2115;51.038;7.006;2023-06-14T13:02:13;2.38;;;1.40;;
4202;SDS011;2115;51.038;7.006;2023-06-14T13:04:38;1.60;;;1.33;;
4202;SDS011;2115;51.038;7.006;2023-06-14T13:07:04;1.90;;;1.30;;
4202;SDS011;2115;51.038;7.006;2023-06-14T13:09:30;2.80;;;1.40;;
4202;SDS011;2115;51.038;7.006;2023-06-14T13:11:55;7.85;;;1.75;;
4202;SDS011;2115;51.038;7.006;2023-06-14T13:14:21;6.45;;;1.27;;
4202;SDS011;2115;51.038;7.006;2023-06-14T13:16:46;4.10;;;1.48;;
4202;SDS011;2115;51.038;7.006;2023-06-14T13:19:11;1.88;;;1.27;;
4202;SDS011;2115;51.038;7.006;2023-06-14T13:21:37;2.50;;;1.20;;
4202;SDS011;2115;51.038;7.006;2023-06-14T13:24:02;3.55;;;1.45;;
4202;SDS011;2115;51.038;7.006;2023-06-14T13:26:28;2.22;;;1.23;;
4202;SDS011;2115;51.038;7.006;2023-06-14T13:28:53;1.90;;;1.73;;
4202;SDS011;2115;51.038;7.006;2023-06-14T13:31:19;3.28;;;1.60;;
4202;SDS011;2115;51.038;7.006;2023-06-14T13:33:44;3.42;;;1.10;;
4202;SDS011;2115;51.038;7.006;2023-06-14T13:36:10;3.08;;;1.60;;
4202;SDS011;2115;51.038;7.006;2023-06-14T13:38:35;2.97;;;1.92;;
4202;SDS011;2115;51.038;7.006;2023-06-14T13:41:01;3.10;;;1.52;;
4202;SDS011;2115;51.038;7.006;2023-06-14T13:43:26;6.10;;;1.92;;
4202;SDS011;2115;51.038;7.006;2023-06-14T13:45:51;2.03;;;1.50;;
4202;SDS011;2115;51.038;7.006;2023-06-14T13:48:17;4.63;;;1.33;;
4202;SDS011;2115;51.038;7.006;2023-06-14T13:50:43;1.90;;;1.70;;
4202;SDS011;2115;51.038;7.006;2023-06-14T13:53:08;3.03;;;1.50;;
4202;SDS011;2115;51.038;7.006;2023-06-14T13:55:33;3.65;;;1.65;;
4202;SDS011;2115;51.038;7.006;2023-06-14T13:57:59;4.78;;;1.42;;
4202;SDS011;2115;51.038;7.006;2023-06-14T14:00:25;3.45;;;1.55;;
4202;SDS011;2115;51.038;7.006;2023-06-14T14:02:50;5.15;;;1.50;;
4202;SDS011;2115;51.038;7.006;2023-06-14T14:05:16;6.03;;;1.90;;
4202;SDS011;2115;51.038;7.006;2023-06-14T14:07:41;2.17;;;1.55;;
4202;SDS011;2115;51.038;7.006;2023-06-14T14:10:07;5.07;;;1.92;;
4202;SDS011;2115;51.038;7.006;2023-06-14T14:12:33;2.65;;;1.73;;
4202;SDS011;2115;51.038;7.006;2023-06-14T14:14:59;2.28;;;1.60;;
4202;SDS011;2115;51.038;7.006;2023-06-14T14:17:24;7.32;;;2.35;;
4202;SDS011;2115;51.038;7.006;2023-06-14T14:19:50;2.47;;;1.60;;
4202;SDS011;2115;51.038;7.006;2023-06-14T14:22:15;2.00;;;1.58;;
4202;SDS011;2115;51.038;7.006;2023-06-14T14:24:41;2.83;;;1.63;;
4202;SDS011;2115;51.038;7.006;2023-06-14T14:27:06;2.47;;;1.98;;
4202;SDS011;2115;51.038;7.006;2023-06-14T14:29:32;9.75;;;2.17;;
4202;SDS011;2115;51.038;7.006;2023-06-14T14:31:58;10.68;;;1.88;;
4202;SDS011;2115;51.038;7.006;2023-06-14T14:34:26;2.83;;;1.70;;
4202;SDS011;2115;51.038;7.006;2023-06-14T14:36:53;3.22;;;1.88;;
4202;SDS011;2115;51.038;7.006;2023-06-14T14:39:18;3.67;;;1.73;;
4202;SDS011;2115;51.038;7.006;2023-06-14T14:41:44;2.10;;;1.50;;
4202;SDS011;2115;51.038;7.006;2023-06-14T14:44:09;3.92;;;2.13;;
4202;SDS011;2115;51.038;7.006;2023-06-14T14:46:35;4.13;;;1.63;;
4202;SDS011;2115;51.038;7.006;2023-06-14T14:49:00;4.22;;;2.30;;
4202;SDS011;2115;51.038;7.006;2023-06-14T14:51:26;2.53;;;1.70;;
4202;SDS011;2115;51.038;7.006;2023-06-14T14:53:51;5.32;;;2.08;;
4202;SDS011;2115;51.038;7.006;2023-06-14T14:56:17;6.10;;;1.80;;
4202;SDS011;2115;51.038;7.006;2023-06-14T14:58:42;2.30;;;1.65;;
4202;SDS011;2115;51.038;7.006;2023-06-14T15:01:08;9.98;;;2.25;;
4202;SDS011;2115;51.038;7.006;2023-06-14T15:03:35;7.90;;;2.50;;
4202;SDS011;2115;51.038;7.006;2023-06-14T15:06:00;7.72;;;1.90;;
4202;SDS011;2115;51.038;7.006;2023-06-14T15:08:26;5.07;;;1.90;;
4202;SDS011;2115;51.038;7.006;2023-06-14T15:10:51;2.60;;;1.42;;
4202;SDS011;2115;51.038;7.006;2023-06-14T15:13:20;2.40;;;1.88;;
4202;SDS011;2115;51.038;7.006;2023-06-14T15:15:46;3.97;;;1.80;;
4202;SDS011;2115;51.038;7.006;2023-06-14T15:18:11;4.65;;;1.85;;
4202;SDS011;2115;51.038;7.006;2023-06-14T15:20:37;4.68;;;2.08;;
4202;SDS011;2115;51.038;7.006;2023-06-14T15:23:02;5.43;;;2.00;;
4202;SDS011;2115;51.038;7.006;2023-06-14T15:25:28;5.53;;;1.90;;